Djanet, Algeria
Current Conditions -  °F | °C
As of 5:00 PM on Thursday 30 Oct 2014 (Local Time) from DAAJ Reporting Station
Clear Clear  
Wind Chill: 86°   Ceiling: Unl
Heat Index: 86°   Visibility: 6mi
Dew Point: 46°   Wind: 5mph
Humidity: 25%   Direction: 240°WSW
Pressure: 30.06"   Gusts: NA
Location:  24.55°N, 9.48°E
Report Text: DAAJ 301600Z 24004KT CAVOK 30/08 Q1018
Loading
Personal Weather Stations






























Interactive Weather Map
Tropical Storm Tracking
New forecast layout! Learn more

10-Day Weather Forecast

Advertisements
Track Severe Weather on mobile